sensor_id;sensor_type;location;lat;lon;timestamp;temperature;humidity
15609;DHT22;64278;45.642;13.756;2023-05-10T00:02:09;22.20;54.70
15609;DHT22;64278;45.642;13.756;2023-05-10T00:04:35;22.20;54.70
15609;DHT22;64278;45.642;13.756;2023-05-10T00:07:01;22.10;54.70
15609;DHT22;64278;45.642;13.756;2023-05-10T00:09:26;22.10;54.70
15609;DHT22;64278;45.642;13.756;2023-05-10T00:11:52;22.20;54.80
15609;DHT22;64278;45.642;13.756;2023-05-10T00:14:18;22.10;54.80
15609;DHT22;64278;45.642;13.756;2023-05-10T00:16:44;22.20;54.90
15609;DHT22;64278;45.642;13.756;2023-05-10T00:19:10;22.20;54.90
15609;DHT22;64278;45.642;13.756;2023-05-10T00:21:35;22.20;55.00
15609;DHT22;64278;45.642;13.756;2023-05-10T00:24:01;22.20;55.00
15609;DHT22;64278;45.642;13.756;2023-05-10T00:26:27;22.20;55.00
15609;DHT22;64278;45.642;13.756;2023-05-10T00:28:53;22.20;55.00
15609;DHT22;64278;45.642;13.756;2023-05-10T00:31:18;22.20;55.00
15609;DHT22;64278;45.642;13.756;2023-05-10T00:33:44;22.20;55.00
15609;DHT22;64278;45.642;13.756;2023-05-10T00:36:10;22.10;55.00
15609;DHT22;64278;45.642;13.756;2023-05-10T00:38:36;22.20;55.10
15609;DHT22;64278;45.642;13.756;2023-05-10T00:41:01;22.20;55.20
15609;DHT22;64278;45.642;13.756;2023-05-10T00:43:27;22.10;55.20
15609;DHT22;64278;45.642;13.756;2023-05-10T00:45:53;22.20;55.20
15609;DHT22;64278;45.642;13.756;2023-05-10T00:48:19;22.20;55.20
15609;DHT22;64278;45.642;13.756;2023-05-10T00:50:45;22.10;55.20
15609;DHT22;64278;45.642;13.756;2023-05-10T00:53:11;22.10;55.20
15609;DHT22;64278;45.642;13.756;2023-05-10T00:55:37;22.10;55.20
15609;DHT22;64278;45.642;13.756;2023-05-10T00:58:04;22.10;55.30
15609;DHT22;64278;45.642;13.756;2023-05-10T01:00:30;22.10;55.30
15609;DHT22;64278;45.642;13.756;2023-05-10T01:02:56;22.20;55.30
15609;DHT22;64278;45.642;13.756;2023-05-10T01:05:22;22.10;55.30
15609;DHT22;64278;45.642;13.756;2023-05-10T01:07:47;22.10;55.30
15609;DHT22;64278;45.642;13.756;2023-05-10T01:10:13;22.10;55.30
15609;DHT22;64278;45.642;13.756;2023-05-10T01:12:42;22.10;55.30
15609;DHT22;64278;45.642;13.756;2023-05-10T01:15:08;22.10;55.40
15609;DHT22;64278;45.642;13.756;2023-05-10T01:17:38;22.10;55.40
15609;DHT22;64278;45.642;13.756;2023-05-10T01:20:05;22.10;55.40
15609;DHT22;64278;45.642;13.756;2023-05-10T01:34:00;22.20;55.60
15609;DHT22;64278;45.642;13.756;2023-05-10T01:36:39;22.10;55.50
15609;DHT22;64278;45.642;13.756;2023-05-10T01:39:32;22.10;55.60
15609;DHT22;64278;45.642;13.756;2023-05-10T01:47:34;22.10;55.70
15609;DHT22;64278;45.642;13.756;2023-05-10T01:50:04;22.10;55.70
15609;DHT22;64278;45.642;13.756;2023-05-10T01:52:42;22.10;55.70
15609;DHT22;64278;45.642;13.756;2023-05-10T01:55:15;22.10;55.70
15609;DHT22;64278;45.642;13.756;2023-05-10T01:57:44;22.10;55.70
15609;DHT22;64278;45.642;13.756;2023-05-10T02:00:12;22.10;55.70
15609;DHT22;64278;45.642;13.756;2023-05-10T02:02:45;22.10;55.70
15609;DHT22;64278;45.642;13.756;2023-05-10T02:05:13;22.10;55.70
15609;DHT22;64278;45.642;13.756;2023-05-10T02:07:41;22.10;55.80
15609;DHT22;64278;45.642;13.756;2023-05-10T02:10:08;22.10;55.80
15609;DHT22;64278;45.642;13.756;2023-05-10T02:12:45;22.10;55.80
15609;DHT22;64278;45.642;13.756;2023-05-10T02:15:17;22.10;55.80
15609;DHT22;64278;45.642;13.756;2023-05-10T02:17:44;22.10;55.90
15609;DHT22;64278;45.642;13.756;2023-05-10T02:20:12;22.10;55.90
15609;DHT22;64278;45.642;13.756;2023-05-10T02:22:40;22.10;55.90
15609;DHT22;64278;45.642;13.756;2023-05-10T02:25:08;22.10;55.90
15609;DHT22;64278;45.642;13.756;2023-05-10T02:27:35;22.10;55.90
15609;DHT22;64278;45.642;13.756;2023-05-10T02:30:02;22.10;55.90
15609;DHT22;64278;45.642;13.756;2023-05-10T02:32:28;22.10;56.00
15609;DHT22;64278;45.642;13.756;2023-05-10T02:34:56;22.10;56.00
15609;DHT22;64278;45.642;13.756;2023-05-10T02:37:22;22.10;56.00
15609;DHT22;64278;45.642;13.756;2023-05-10T02:39:50;22.10;56.00
15609;DHT22;64278;45.642;13.756;2023-05-10T02:42:19;22.10;56.00
15609;DHT22;64278;45.642;13.756;2023-05-10T02:44:48;22.10;56.00
15609;DHT22;64278;45.642;13.756;2023-05-10T02:47:16;22.10;56.00
15609;DHT22;64278;45.642;13.756;2023-05-10T02:49:42;22.10;56.60
15609;DHT22;64278;45.642;13.756;2023-05-10T02:52:08;22.10;56.00
15609;DHT22;64278;45.642;13.756;2023-05-10T02:54:43;22.10;56.10
15609;DHT22;64278;45.642;13.756;2023-05-10T02:57:14;22.10;56.00
15609;DHT22;64278;45.642;13.756;2023-05-10T02:59:41;22.10;56.10
15609;DHT22;64278;45.642;13.756;2023-05-10T03:02:09;22.10;56.10
15609;DHT22;64278;45.642;13.756;2023-05-10T03:04:35;22.10;56.10
15609;DHT22;64278;45.642;13.756;2023-05-10T03:07:01;22.10;56.10
15609;DHT22;64278;45.642;13.756;2023-05-10T03:09:27;22.10;56.80
15609;DHT22;64278;45.642;13.756;2023-05-10T03:12:45;22.10;56.20
15609;DHT22;64278;45.642;13.756;2023-05-10T03:15:28;22.10;56.20
15609;DHT22;64278;45.642;13.756;2023-05-10T03:18:07;22.10;56.20
15609;DHT22;64278;45.642;13.756;2023-05-10T03:20:47;22.10;56.30
15609;DHT22;64278;45.642;13.756;2023-05-10T03:25:47;22.10;56.30
15609;DHT22;64278;45.642;13.756;2023-05-10T03:28:14;22.10;56.30
15609;DHT22;64278;45.642;13.756;2023-05-10T03:30:41;22.10;56.30
15609;DHT22;64278;45.642;13.756;2023-05-10T03:33:08;22.10;56.30
15609;DHT22;64278;45.642;13.756;2023-05-10T03:35:34;22.10;56.30
15609;DHT22;64278;45.642;13.756;2023-05-10T03:38:00;22.10;56.30
15609;DHT22;64278;45.642;13.756;2023-05-10T03:40:26;22.10;56.30
15609;DHT22;64278;45.642;13.756;2023-05-10T03:42:55;22.10;56.30
15609;DHT22;64278;45.642;13.756;2023-05-10T03:45:20;22.10;56.30
15609;DHT22;64278;45.642;13.756;2023-05-10T03:47:46;22.10;56.40
15609;DHT22;64278;45.642;13.756;2023-05-10T03:50:12;22.10;56.40
15609;DHT22;64278;45.642;13.756;2023-05-10T03:52:37;22.10;56.40
15609;DHT22;64278;45.642;13.756;2023-05-10T03:55:05;22.10;56.40
15609;DHT22;64278;45.642;13.756;2023-05-10T03:57:31;22.10;56.40
15609;DHT22;64278;45.642;13.756;2023-05-10T03:59:57;22.10;56.40
15609;DHT22;64278;45.642;13.756;2023-05-10T04:02:23;22.10;56.50
15609;DHT22;64278;45.642;13.756;2023-05-10T04:04:49;22.10;56.50
15609;DHT22;64278;45.642;13.756;2023-05-10T04:07:14;22.10;56.50
15609;DHT22;64278;45.642;13.756;2023-05-10T04:09:40;22.10;56.50
15609;DHT22;64278;45.642;13.756;2023-05-10T04:12:06;22.10;56.50
15609;DHT22;64278;45.642;13.756;2023-05-10T04:14:32;22.10;56.50
15609;DHT22;64278;45.642;13.756;2023-05-10T04:16:58;22.10;56.50
15609;DHT22;64278;45.642;13.756;2023-05-10T04:19:23;22.10;56.50
15609;DHT22;64278;45.642;13.756;2023-05-10T04:21:49;22.10;56.60
15609;DHT22;64278;45.642;13.756;2023-05-10T04:24:14;22.10;56.60
15609;DHT22;64278;45.642;13.756;2023-05-10T04:26:40;22.10;56.60
15609;DHT22;64278;45.642;13.756;2023-05-10T04:29:06;22.10;56.60
15609;DHT22;64278;45.642;13.756;2023-05-10T04:31:32;22.10;56.60
15609;DHT22;64278;45.642;13.756;2023-05-10T04:33:57;22.10;56.60
15609;DHT22;64278;45.642;13.756;2023-05-10T04:36:23;22.10;56.60
15609;DHT22;64278;45.642;13.756;2023-05-10T04:38:49;22.10;56.60
15609;DHT22;64278;45.642;13.756;2023-05-10T04:41:14;22.10;56.60
15609;DHT22;64278;45.642;13.756;2023-05-10T04:43:40;22.10;57.30
15609;DHT22;64278;45.642;13.756;2023-05-10T04:46:06;22.10;56.60
15609;DHT22;64278;45.642;13.756;2023-05-10T04:48:32;22.10;56.60
15609;DHT22;64278;45.642;13.756;2023-05-10T04:50:58;22.10;56.60
15609;DHT22;64278;45.642;13.756;2023-05-10T04:53:24;22.10;56.60
15609;DHT22;64278;45.642;13.756;2023-05-10T04:55:49;22.10;56.70
15609;DHT22;64278;45.642;13.756;2023-05-10T04:58:15;22.10;56.70
15609;DHT22;64278;45.642;13.756;2023-05-10T05:00:41;22.10;56.80
15609;DHT22;64278;45.642;13.756;2023-05-10T05:03:07;22.10;56.80
15609;DHT22;64278;45.642;13.756;2023-05-10T05:05:32;22.10;56.80
15609;DHT22;64278;45.642;13.756;2023-05-10T05:07:58;22.10;56.80
15609;DHT22;64278;45.642;13.756;2023-05-10T05:10:24;22.10;56.80
15609;DHT22;64278;45.642;13.756;2023-05-10T05:12:49;22.10;56.80
15609;DHT22;64278;45.642;13.756;2023-05-10T05:15:15;22.10;56.90
15609;DHT22;64278;45.642;13.756;2023-05-10T05:17:42;22.10;56.90
15609;DHT22;64278;45.642;13.756;2023-05-10T05:20:09;22.10;56.90
15609;DHT22;64278;45.642;13.756;2023-05-10T05:22:36;22.10;56.90
15609;DHT22;64278;45.642;13.756;2023-05-10T05:25:02;22.10;56.90
15609;DHT22;64278;45.642;13.756;2023-05-10T05:27:28;22.10;56.90
15609;DHT22;64278;45.642;13.756;2023-05-10T05:29:55;22.10;56.90
15609;DHT22;64278;45.642;13.756;2023-05-10T05:32:22;22.10;56.90
15609;DHT22;64278;45.642;13.756;2023-05-10T05:34:48;22.10;56.90
15609;DHT22;64278;45.642;13.756;2023-05-10T05:37:18;22.10;56.90
15609;DHT22;64278;45.642;13.756;2023-05-10T05:39:45;22.10;56.90
15609;DHT22;64278;45.642;13.756;2023-05-10T05:42:11;22.10;57.00
15609;DHT22;64278;45.642;13.756;2023-05-10T05:44:38;22.10;57.00
15609;DHT22;64278;45.642;13.756;2023-05-10T05:47:04;22.10;57.00
15609;DHT22;64278;45.642;13.756;2023-05-10T05:49:30;22.10;57.00
15609;DHT22;64278;45.642;13.756;2023-05-10T05:51:59;22.10;57.00
15609;DHT22;64278;45.642;13.756;2023-05-10T05:54:26;22.10;57.00
15609;DHT22;64278;45.642;13.756;2023-05-10T05:56:54;22.10;57.10
15609;DHT22;64278;45.642;13.756;2023-05-10T05:59:20;22.00;57.00
15609;DHT22;64278;45.642;13.756;2023-05-10T06:01:46;22.10;57.10
15609;DHT22;64278;45.642;13.756;2023-05-10T06:04:12;22.10;57.10
15609;DHT22;64278;45.642;13.756;2023-05-10T06:06:38;22.10;57.10
15609;DHT22;64278;45.642;13.756;2023-05-10T06:09:03;22.10;57.10
15609;DHT22;64278;45.642;13.756;2023-05-10T06:11:29;22.10;57.10
15609;DHT22;64278;45.642;13.756;2023-05-10T06:13:57;22.10;57.10
15609;DHT22;64278;45.642;13.756;2023-05-10T06:16:23;22.10;57.10
15609;DHT22;64278;45.642;13.756;2023-05-10T06:18:49;22.10;57.10
15609;DHT22;64278;45.642;13.756;2023-05-10T06:21:15;22.10;57.10
15609;DHT22;64278;45.642;13.756;2023-05-10T06:23:41;22.10;57.10
15609;DHT22;64278;45.642;13.756;2023-05-10T06:26:07;22.10;57.10
15609;DHT22;64278;45.642;13.756;2023-05-10T06:28:33;22.10;57.10
15609;DHT22;64278;45.642;13.756;2023-05-10T06:30:59;22.10;57.00
15609;DHT22;64278;45.642;13.756;2023-05-10T06:33:25;22.10;57.00
15609;DHT22;64278;45.642;13.756;2023-05-10T06:35:51;22.10;57.00
15609;DHT22;64278;45.642;13.756;2023-05-10T06:38:17;22.10;57.00
15609;DHT22;64278;45.642;13.756;2023-05-10T06:40:43;22.10;57.00
15609;DHT22;64278;45.642;13.756;2023-05-10T06:43:09;22.10;57.00
15609;DHT22;64278;45.642;13.756;2023-05-10T06:45:34;22.10;56.90
15609;DHT22;64278;45.642;13.756;2023-05-10T06:48:00;22.00;56.90
15609;DHT22;64278;45.642;13.756;2023-05-10T06:50:26;22.10;56.90
15609;DHT22;64278;45.642;13.756;2023-05-10T06:52:52;22.10;56.90
15609;DHT22;64278;45.642;13.756;2023-05-10T06:55:17;22.10;56.90
15609;DHT22;64278;45.642;13.756;2023-05-10T06:57:43;22.10;57.50
15609;DHT22;64278;45.642;13.756;2023-05-10T07:00:09;22.10;56.90
15609;DHT22;64278;45.642;13.756;2023-05-10T07:02:35;22.10;56.90
15609;DHT22;64278;45.642;13.756;2023-05-10T07:05:01;22.10;56.90
15609;DHT22;64278;45.642;13.756;2023-05-10T07:07:27;22.10;56.90
15609;DHT22;64278;45.642;13.756;2023-05-10T07:09:54;22.10;57.50
15609;DHT22;64278;45.642;13.756;2023-05-10T07:12:20;22.00;56.80
15609;DHT22;64278;45.642;13.756;2023-05-10T07:14:45;22.10;56.90
15609;DHT22;64278;45.642;13.756;2023-05-10T07:17:12;22.10;56.90
15609;DHT22;64278;45.642;13.756;2023-05-10T07:19:37;22.10;57.00
15609;DHT22;64278;45.642;13.756;2023-05-10T07:22:03;22.10;57.00
15609;DHT22;64278;45.642;13.756;2023-05-10T07:24:29;22.00;56.90
15609;DHT22;64278;45.642;13.756;2023-05-10T07:26:55;22.10;57.00
15609;DHT22;64278;45.642;13.756;2023-05-10T07:29:20;22.10;57.00
15609;DHT22;64278;45.642;13.756;2023-05-10T07:31:46;22.00;57.00
15609;DHT22;64278;45.642;13.756;2023-05-10T07:34:12;22.10;57.00
15609;DHT22;64278;45.642;13.756;2023-05-10T07:36:37;22.10;57.00
15609;DHT22;64278;45.642;13.756;2023-05-10T07:39:03;22.10;57.00
15609;DHT22;64278;45.642;13.756;2023-05-10T07:41:30;22.00;57.00
15609;DHT22;64278;45.642;13.756;2023-05-10T07:43:55;22.00;57.00
15609;DHT22;64278;45.642;13.756;2023-05-10T07:46:21;22.10;57.10
15609;DHT22;64278;45.642;13.756;2023-05-10T07:48:47;22.10;57.10
15609;DHT22;64278;45.642;13.756;2023-05-10T07:51:12;22.10;57.10
15609;DHT22;64278;45.642;13.756;2023-05-10T07:53:38;22.00;57.10
15609;DHT22;64278;45.642;13.756;2023-05-10T07:56:29;22.00;57.10
15609;DHT22;64278;45.642;13.756;2023-05-10T07:59:00;22.00;57.10
15609;DHT22;64278;45.642;13.756;2023-05-10T08:01:29;22.10;57.20
15609;DHT22;64278;45.642;13.756;2023-05-10T08:03:55;22.00;57.20
15609;DHT22;64278;45.642;13.756;2023-05-10T08:06:21;22.00;57.10
15609;DHT22;64278;45.642;13.756;2023-05-10T08:08:47;22.00;57.20
15609;DHT22;64278;45.642;13.756;2023-05-10T08:11:19;22.00;57.20
15609;DHT22;64278;45.642;13.756;2023-05-10T08:13:46;22.00;57.20
15609;DHT22;64278;45.642;13.756;2023-05-10T08:16:12;22.00;57.20
15609;DHT22;64278;45.642;13.756;2023-05-10T08:18:38;22.00;57.30
15609;DHT22;64278;45.642;13.756;2023-05-10T08:21:04;22.10;57.40
15609;DHT22;64278;45.642;13.756;2023-05-10T08:23:30;22.10;57.60
15609;DHT22;64278;45.642;13.756;2023-05-10T08:25:55;22.10;57.60
15609;DHT22;64278;45.642;13.756;2023-05-10T08:28:21;22.10;57.70
15609;DHT22;64278;45.642;13.756;2023-05-10T08:30:47;22.10;57.80
15609;DHT22;64278;45.642;13.756;2023-05-10T08:33:12;22.10;57.80
15609;DHT22;64278;45.642;13.756;2023-05-10T08:35:38;22.10;57.90
15609;DHT22;64278;45.642;13.756;2023-05-10T08:38:04;22.00;57.90
15609;DHT22;64278;45.642;13.756;2023-05-10T08:40:29;22.10;57.90
15609;DHT22;64278;45.642;13.756;2023-05-10T08:43:12;22.10;57.90
15609;DHT22;64278;45.642;13.756;2023-05-10T08:45:40;22.10;58.00
15609;DHT22;64278;45.642;13.756;2023-05-10T08:48:07;22.10;58.00
15609;DHT22;64278;45.642;13.756;2023-05-10T08:50:37;22.10;58.00
15609;DHT22;64278;45.642;13.756;2023-05-10T08:53:11;22.10;58.00
15609;DHT22;64278;45.642;13.756;2023-05-10T08:55:38;22.10;58.00
15609;DHT22;64278;45.642;13.756;2023-05-10T08:58:07;22.10;58.00
15609;DHT22;64278;45.642;13.756;2023-05-10T09:00:33;22.00;58.00
15609;DHT22;64278;45.642;13.756;2023-05-10T09:03:00;22.00;58.00
15609;DHT22;64278;45.642;13.756;2023-05-10T09:05:26;22.00;58.10
15609;DHT22;64278;45.642;13.756;2023-05-10T09:07:52;22.00;58.00
15609;DHT22;64278;45.642;13.756;2023-05-10T09:10:19;22.00;58.00
15609;DHT22;64278;45.642;13.756;2023-05-10T09:12:45;22.10;58.10
15609;DHT22;64278;45.642;13.756;2023-05-10T09:15:11;22.00;58.00
15609;DHT22;64278;45.642;13.756;2023-05-10T09:17:40;22.00;58.70
15609;DHT22;64278;45.642;13.756;2023-05-10T09:20:07;22.00;58.00
15609;DHT22;64278;45.642;13.756;2023-05-10T09:22:33;22.00;58.00
15609;DHT22;64278;45.642;13.756;2023-05-10T09:25:17;22.00;58.00
15609;DHT22;64278;45.642;13.756;2023-05-10T09:27:47;22.00;58.10
15609;DHT22;64278;45.642;13.756;2023-05-10T09:30:17;22.00;58.10
15609;DHT22;64278;45.642;13.756;2023-05-10T09:32:48;22.00;58.10
15609;DHT22;64278;45.642;13.756;2023-05-10T09:35:20;22.00;58.10
15609;DHT22;64278;45.642;13.756;2023-05-10T09:37:47;22.00;58.10
15609;DHT22;64278;45.642;13.756;2023-05-10T09:42:42;22.00;58.10
15609;DHT22;64278;45.642;13.756;2023-05-10T09:45:09;22.00;58.10
15609;DHT22;64278;45.642;13.756;2023-05-10T09:47:35;22.00;58.10
15609;DHT22;64278;45.642;13.756;2023-05-10T09:50:02;22.00;58.10
15609;DHT22;64278;45.642;13.756;2023-05-10T09:55:11;22.00;58.10
15609;DHT22;64278;45.642;13.756;2023-05-10T09:57:36;22.00;58.10
15609;DHT22;64278;45.642;13.756;2023-05-10T10:00:02;22.00;58.10
15609;DHT22;64278;45.642;13.756;2023-05-10T10:02:31;22.00;58.10
15609;DHT22;64278;45.642;13.756;2023-05-10T10:04:57;22.00;58.20
15609;DHT22;64278;45.642;13.756;2023-05-10T10:07:24;22.00;58.10
15609;DHT22;64278;45.642;13.756;2023-05-10T10:09:51;22.00;58.10
15609;DHT22;64278;45.642;13.756;2023-05-10T10:12:17;22.00;58.20
15609;DHT22;64278;45.642;13.756;2023-05-10T10:14:43;22.00;58.20
15609;DHT22;64278;45.642;13.756;2023-05-10T10:17:09;22.00;58.20
15609;DHT22;64278;45.642;13.756;2023-05-10T10:19:35;22.00;58.20
15609;DHT22;64278;45.642;13.756;2023-05-10T10:22:01;22.00;58.20
15609;DHT22;64278;45.642;13.756;2023-05-10T10:24:28;22.00;58.20
15609;DHT22;64278;45.642;13.756;2023-05-10T10:26:57;22.00;58.20
15609;DHT22;64278;45.642;13.756;2023-05-10T10:29:33;22.00;58.80
15609;DHT22;64278;45.642;13.756;2023-05-10T10:32:22;22.00;58.20
15609;DHT22;64278;45.642;13.756;2023-05-10T10:34:50;22.00;58.20
15609;DHT22;64278;45.642;13.756;2023-05-10T10:37:15;22.00;58.20
15609;DHT22;64278;45.642;13.756;2023-05-10T10:39:41;22.00;58.20
15609;DHT22;64278;45.642;13.756;2023-05-10T10:42:07;22.00;58.20
15609;DHT22;64278;45.642;13.756;2023-05-10T10:44:36;22.00;58.20
15609;DHT22;64278;45.642;13.756;2023-05-10T10:52:28;22.00;58.20
15609;DHT22;64278;45.642;13.756;2023-05-10T10:57:29;22.00;58.20
15609;DHT22;64278;45.642;13.756;2023-05-10T11:02:46;22.00;58.20
15609;DHT22;64278;45.642;13.756;2023-05-10T11:05:39;22.00;58.10
15609;DHT22;64278;45.642;13.756;2023-05-10T11:10:37;22.00;58.10
15609;DHT22;64278;45.642;13.756;2023-05-10T11:13:06;22.00;58.20
15609;DHT22;64278;45.642;13.756;2023-05-10T11:15:33;22.00;58.20
15609;DHT22;64278;45.642;13.756;2023-05-10T11:17:59;22.00;58.20
15609;DHT22;64278;45.642;13.756;2023-05-10T11:20:28;22.00;58.20
15609;DHT22;64278;45.642;13.756;2023-05-10T11:23:11;22.00;58.20
15609;DHT22;64278;45.642;13.756;2023-05-10T11:25:45;22.00;58.20
15609;DHT22;64278;45.642;13.756;2023-05-10T11:28:12;22.00;58.20
15609;DHT22;64278;45.642;13.756;2023-05-10T11:30:43;22.00;58.20
15609;DHT22;64278;45.642;13.756;2023-05-10T11:33:09;22.00;58.20
15609;DHT22;64278;45.642;13.756;2023-05-10T11:35:39;22.00;58.20
15609;DHT22;64278;45.642;13.756;2023-05-10T11:38:06;22.00;58.20
15609;DHT22;64278;45.642;13.756;2023-05-10T11:40:32;22.00;58.20
15609;DHT22;64278;45.642;13.756;2023-05-10T11:42:58;22.00;58.20
15609;DHT22;64278;45.642;13.756;2023-05-10T11:45:24;22.00;58.20
15609;DHT22;64278;45.642;13.756;2023-05-10T11:47:50;22.00;58.20
15609;DHT22;64278;45.642;13.756;2023-05-10T11:50:17;22.00;58.20
15609;DHT22;64278;45.642;13.756;2023-05-10T11:52:43;22.00;58.20
15609;DHT22;64278;45.642;13.756;2023-05-10T11:55:09;22.00;58.20
15609;DHT22;64278;45.642;13.756;2023-05-10T11:57:35;21.90;58.20
15609;DHT22;64278;45.642;13.756;2023-05-10T12:00:04;22.00;58.20
15609;DHT22;64278;45.642;13.756;2023-05-10T12:02:30;21.90;58.20
15609;DHT22;64278;45.642;13.756;2023-05-10T12:04:56;22.00;58.20
15609;DHT22;64278;45.642;13.756;2023-05-10T12:07:22;22.00;58.10
15609;DHT22;64278;45.642;13.756;2023-05-10T12:10:07;22.00;58.00
15609;DHT22;64278;45.642;13.756;2023-05-10T12:12:44;22.10;57.90
15609;DHT22;64278;45.642;13.756;2023-05-10T12:15:22;22.30;57.80
15609;DHT22;64278;45.642;13.756;2023-05-10T12:17:49;22.30;57.70
15609;DHT22;64278;45.642;13.756;2023-05-10T12:20:20;22.40;57.60
15609;DHT22;64278;45.642;13.756;2023-05-10T12:22:51;22.50;57.40
15609;DHT22;64278;45.642;13.756;2023-05-10T12:25:18;22.60;57.30
15609;DHT22;64278;45.642;13.756;2023-05-10T12:27:55;22.60;57.10
15609;DHT22;64278;45.642;13.756;2023-05-10T12:30:26;22.70;57.00
15609;DHT22;64278;45.642;13.756;2023-05-10T12:32:52;22.70;56.90
15609;DHT22;64278;45.642;13.756;2023-05-10T12:35:18;22.70;56.90
15609;DHT22;64278;45.642;13.756;2023-05-10T12:37:50;22.80;56.80
15609;DHT22;64278;45.642;13.756;2023-05-10T12:40:16;22.80;56.70
15609;DHT22;64278;45.642;13.756;2023-05-10T12:42:42;22.90;56.60
15609;DHT22;64278;45.642;13.756;2023-05-10T12:45:10;22.90;56.60
15609;DHT22;64278;45.642;13.756;2023-05-10T12:47:36;22.90;56.50
15609;DHT22;64278;45.642;13.756;2023-05-10T12:50:03;23.00;56.50
15609;DHT22;64278;45.642;13.756;2023-05-10T12:52:29;23.00;56.50
15609;DHT22;64278;45.642;13.756;2023-05-10T12:54:55;23.00;56.50
15609;DHT22;64278;45.642;13.756;2023-05-10T12:57:21;23.10;56.50
15609;DHT22;64278;45.642;13.756;2023-05-10T12:59:47;23.10;56.50
15609;DHT22;64278;45.642;13.756;2023-05-10T13:02:12;23.10;56.50
15609;DHT22;64278;45.642;13.756;2023-05-10T13:04:40;23.10;56.50
15609;DHT22;64278;45.642;13.756;2023-05-10T13:07:06;23.20;56.60
15609;DHT22;64278;45.642;13.756;2023-05-10T13:09:32;23.20;56.60
15609;DHT22;64278;45.642;13.756;2023-05-10T13:11:58;23.20;56.70
15609;DHT22;64278;45.642;13.756;2023-05-10T13:14:24;23.30;56.80
15609;DHT22;64278;45.642;13.756;2023-05-10T13:16:50;23.30;56.90
15609;DHT22;64278;45.642;13.756;2023-05-10T13:19:16;23.30;57.00
15609;DHT22;64278;45.642;13.756;2023-05-10T13:21:43;23.40;57.20
15609;DHT22;64278;45.642;13.756;2023-05-10T13:24:10;23.40;57.40
15609;DHT22;64278;45.642;13.756;2023-05-10T13:26:36;23.40;57.50
15609;DHT22;64278;45.642;13.756;2023-05-10T13:29:02;23.40;57.70
15609;DHT22;64278;45.642;13.756;2023-05-10T13:31:28;23.40;57.90
15609;DHT22;64278;45.642;13.756;2023-05-10T13:33:55;23.40;58.00
15609;DHT22;64278;45.642;13.756;2023-05-10T13:36:20;23.50;58.30
15609;DHT22;64278;45.642;13.756;2023-05-10T13:38:46;23.50;58.60
15609;DHT22;64278;45.642;13.756;2023-05-10T13:41:12;23.60;59.00
15609;DHT22;64278;45.642;13.756;2023-05-10T13:43:37;23.60;59.10
15609;DHT22;64278;45.642;13.756;2023-05-10T13:46:03;23.60;59.20
15609;DHT22;64278;45.642;13.756;2023-05-10T13:48:29;23.60;59.90
15609;DHT22;64278;45.642;13.756;2023-05-10T13:50:54;23.60;59.40
15609;DHT22;64278;45.642;13.756;2023-05-10T13:53:20;23.70;59.40
15609;DHT22;64278;45.642;13.756;2023-05-10T13:55:47;23.70;59.50
15609;DHT22;64278;45.642;13.756;2023-05-10T13:58:13;23.70;59.60
15609;DHT22;64278;45.642;13.756;2023-05-10T14:00:38;23.70;59.70
15609;DHT22;64278;45.642;13.756;2023-05-10T14:03:04;23.70;59.90
15609;DHT22;64278;45.642;13.756;2023-05-10T14:05:31;23.80;60.10
15609;DHT22;64278;45.642;13.756;2023-05-10T14:07:57;23.80;60.40
15609;DHT22;64278;45.642;13.756;2023-05-10T14:10:23;23.80;60.90
15609;DHT22;64278;45.642;13.756;2023-05-10T14:12:49;23.80;61.40
15609;DHT22;64278;45.642;13.756;2023-05-10T14:15:15;23.80;61.60
15609;DHT22;64278;45.642;13.756;2023-05-10T14:17:41;23.80;61.90
15609;DHT22;64278;45.642;13.756;2023-05-10T14:20:07;23.90;62.20
15609;DHT22;64278;45.642;13.756;2023-05-10T14:22:33;23.80;62.30
15609;DHT22;64278;45.642;13.756;2023-05-10T14:24:59;23.90;62.30
15609;DHT22;64278;45.642;13.756;2023-05-10T14:27:25;23.80;62.20
15609;DHT22;64278;45.642;13.756;2023-05-10T14:29:51;23.80;62.10
15609;DHT22;64278;45.642;13.756;2023-05-10T14:32:17;23.80;62.10
15609;DHT22;64278;45.642;13.756;2023-05-10T14:34:42;23.80;62.00
15609;DHT22;64278;45.642;13.756;2023-05-10T14:37:10;23.80;61.90
15609;DHT22;64278;45.642;13.756;2023-05-10T14:39:36;23.80;61.80
15609;DHT22;64278;45.642;13.756;2023-05-10T14:42:03;23.80;61.70
15609;DHT22;64278;45.642;13.756;2023-05-10T14:44:29;23.80;61.70
15609;DHT22;64278;45.642;13.756;2023-05-10T14:46:55;23.80;61.60
15609;DHT22;64278;45.642;13.756;2023-05-10T14:49:22;23.70;61.50
15609;DHT22;64278;45.642;13.756;2023-05-10T14:51:48;23.80;61.50
15609;DHT22;64278;45.642;13.756;2023-05-10T14:54:14;23.80;61.40
15609;DHT22;64278;45.642;13.756;2023-05-10T14:56:39;23.70;61.40
15609;DHT22;64278;45.642;13.756;2023-05-10T14:59:07;23.70;61.30
15609;DHT22;64278;45.642;13.756;2023-05-10T15:01:33;23.70;61.30
15609;DHT22;64278;45.642;13.756;2023-05-10T15:04:00;23.70;61.30
15609;DHT22;64278;45.642;13.756;2023-05-10T15:06:33;23.70;61.20
15609;DHT22;64278;45.642;13.756;2023-05-10T15:09:00;23.70;61.30
15609;DHT22;64278;45.642;13.756;2023-05-10T15:11:26;23.70;61.20
15609;DHT22;64278;45.642;13.756;2023-05-10T15:13:52;23.70;61.20
15609;DHT22;64278;45.642;13.756;2023-05-10T15:16:17;23.70;61.20
15609;DHT22;64278;45.642;13.756;2023-05-10T15:18:43;23.70;61.20
15609;DHT22;64278;45.642;13.756;2023-05-10T15:21:09;23.60;61.00
15609;DHT22;64278;45.642;13.756;2023-05-10T15:23:35;23.60;61.00
15609;DHT22;64278;45.642;13.756;2023-05-10T15:26:01;23.60;61.00
15609;DHT22;64278;45.642;13.756;2023-05-10T15:28:28;23.60;61.00
15609;DHT22;64278;45.642;13.756;2023-05-10T15:30:54;23.60;61.00
15609;DHT22;64278;45.642;13.756;2023-05-10T15:33:20;23.70;61.00
15609;DHT22;64278;45.642;13.756;2023-05-10T15:35:45;23.60;60.90
15609;DHT22;64278;45.642;13.756;2023-05-10T15:38:11;23.70;60.90
15609;DHT22;64278;45.642;13.756;2023-05-10T15:40:37;23.60;60.80
15609;DHT22;64278;45.642;13.756;2023-05-10T15:43:03;23.60;60.80
15609;DHT22;64278;45.642;13.756;2023-05-10T15:45:28;23.60;60.80
15609;DHT22;64278;45.642;13.756;2023-05-10T15:47:54;23.60;60.70
15609;DHT22;64278;45.642;13.756;2023-05-10T15:50:20;23.60;60.60
15609;DHT22;64278;45.642;13.756;2023-05-10T15:52:46;23.60;60.60
15609;DHT22;64278;45.642;13.756;2023-05-10T15:55:12;23.50;60.50